sensor_id;sensor_type;location;lat;lon;timestamp;P1;durP1;ratioP1;P2;durP2;ratioP2
67429;SDS011;54298;52.076;5.264;2022-11-20T00:00:51;30.9;;;17.61;;
67429;SDS011;54298;52.076;5.264;2022-11-20T00:02:27;30.5;;;19.41;;
67429;SDS011;54298;52.076;5.264;2022-11-20T00:05:40;28.8;;;18.11;;
67429;SDS011;54298;52.076;5.264;2022-11-20T00:07:16;29.6;;;18.7;;
67429;SDS011;54298;52.076;5.264;2022-11-20T00:08:53;27.8;;;17.7;;
67429;SDS011;54298;52.076;5.264;2022-11-20T00:10:31;25.4;;;17.0;;
67429;SDS011;54298;52.076;5.264;2022-11-20T00:13:44;24.4;;;15.6;;
67429;SDS011;54298;52.076;5.264;2022-11-20T00:15:21;23.7;;;15.3;;
67429;SDS011;54298;52.076;5.264;2022-11-20T00:16:57;24.5;;;15.9;;
67429;SDS011;54298;52.076;5.264;2022-11-20T00:20:11;24.1;;;15.4;;
67429;SDS011;54298;52.076;5.264;2022-11-20T00:21:51;26.2;;;16.11;;
67429;SDS011;54298;52.076;5.264;2022-11-20T00:23:27;20.7;;;14.5;;
67429;SDS011;54298;52.076;5.264;2022-11-20T00:25:04;24.5;;;17.0;;
67429;SDS011;54298;52.076;5.264;2022-11-20T00:28:17;24.8;;;15.6;;
67429;SDS011;54298;52.076;5.264;2022-11-20T00:29:53;24.4;;;15.3;;
67429;SDS011;54298;52.076;5.264;2022-11-20T00:31:30;24.7;;;16.3;;
67429;SDS011;54298;52.076;5.264;2022-11-20T00:34:42;24.0;;;15.7;;
67429;SDS011;54298;52.076;5.264;2022-11-20T00:36:20;24.6;;;15.3;;
67429;SDS011;54298;52.076;5.264;2022-11-20T00:37:58;23.7;;;14.8;;
67429;SDS011;54298;52.076;5.264;2022-11-20T00:41:11;23.7;;;14.9;;
67429;SDS011;54298;52.076;5.264;2022-11-20T00:42:49;23.3;;;15.6;;
67429;SDS011;54298;52.076;5.264;2022-11-20T00:44:25;19.8;;;13.4;;
67429;SDS011;54298;52.076;5.264;2022-11-20T00:46:03;20.5;;;13.7;;
67429;SDS011;54298;52.076;5.264;2022-11-20T00:49:17;18.5;;;13.1;;
67429;SDS011;54298;52.076;5.264;2022-11-20T00:50:54;19.61;;;13.6;;
67429;SDS011;54298;52.076;5.264;2022-11-20T00:52:33;20.6;;;13.7;;
67429;SDS011;54298;52.076;5.264;2022-11-20T00:55:52;21.8;;;14.6;;
67429;SDS011;54298;52.076;5.264;2022-11-20T00:57:29;24.5;;;14.4;;
67429;SDS011;54298;52.076;5.264;2022-11-20T00:59:05;21.8;;;14.2;;
67429;SDS011;54298;52.076;5.264;2022-11-20T01:00:41;21.1;;;14.6;;
67429;SDS011;54298;52.076;5.264;2022-11-20T01:03:54;20.8;;;14.3;;
67429;SDS011;54298;52.076;5.264;2022-11-20T01:05:34;22.4;;;15.4;;
67429;SDS011;54298;52.076;5.264;2022-11-20T01:07:10;22.5;;;15.1;;
67429;SDS011;54298;52.076;5.264;2022-11-20T01:10:25;22.5;;;15.0;;
67429;SDS011;54298;52.076;5.264;2022-11-20T01:12:01;23.3;;;15.3;;
67429;SDS011;54298;52.076;5.264;2022-11-20T01:13:37;20.2;;;13.5;;
67429;SDS011;54298;52.076;5.264;2022-11-20T01:15:13;21.9;;;15.2;;
67429;SDS011;54298;52.076;5.264;2022-11-20T01:18:28;23.8;;;14.4;;
67429;SDS011;54298;52.076;5.264;2022-11-20T01:20:04;23.6;;;15.8;;
67429;SDS011;54298;52.076;5.264;2022-11-20T01:21:43;21.2;;;13.8;;
67429;SDS011;54298;52.076;5.264;2022-11-20T01:24:56;23.3;;;15.1;;
67429;SDS011;54298;52.076;5.264;2022-11-20T01:26:33;24.0;;;15.3;;
67429;SDS011;54298;52.076;5.264;2022-11-20T01:28:12;22.6;;;15.6;;
67429;SDS011;54298;52.076;5.264;2022-11-20T01:31:25;21.4;;;14.0;;
67429;SDS011;54298;52.076;5.264;2022-11-20T01:33:03;20.11;;;13.4;;
67429;SDS011;54298;52.076;5.264;2022-11-20T01:34:40;21.8;;;14.3;;
67429;SDS011;54298;52.076;5.264;2022-11-20T01:36:17;17.91;;;13.5;;
67429;SDS011;54298;52.076;5.264;2022-11-20T01:39:31;21.5;;;13.1;;
67429;SDS011;54298;52.076;5.264;2022-11-20T01:41:08;18.3;;;13.1;;
67429;SDS011;54298;52.076;5.264;2022-11-20T01:43:50;18.7;;;13.0;;
67429;SDS011;54298;52.076;5.264;2022-11-20T01:45:49;19.7;;;12.8;;
67429;SDS011;54298;52.076;5.264;2022-11-20T01:47:35;21.5;;;13.9;;
67429;SDS011;54298;52.076;5.264;2022-11-20T01:49:16;21.3;;;14.1;;
67429;SDS011;54298;52.076;5.264;2022-11-20T01:50:59;21.3;;;14.1;;
67429;SDS011;54298;52.076;5.264;2022-11-20T01:54:19;22.1;;;14.7;;
67429;SDS011;54298;52.076;5.264;2022-11-20T01:56:01;20.7;;;14.2;;
67429;SDS011;54298;52.076;5.264;2022-11-20T01:57:42;22.2;;;14.4;;
67429;SDS011;54298;52.076;5.264;2022-11-20T01:59:21;23.0;;;15.0;;
67429;SDS011;54298;52.076;5.264;2022-11-20T02:02:41;24.4;;;15.1;;
67429;SDS011;54298;52.076;5.264;2022-11-20T02:04:22;21.4;;;14.4;;
67429;SDS011;54298;52.076;5.264;2022-11-20T02:06:01;21.2;;;13.9;;
67429;SDS011;54298;52.076;5.264;2022-11-20T02:07:43;20.5;;;13.4;;
67429;SDS011;54298;52.076;5.264;2022-11-20T02:10:56;23.2;;;15.3;;
67429;SDS011;54298;52.076;5.264;2022-11-20T02:13:50;18.91;;;13.7;;
67429;SDS011;54298;52.076;5.264;2022-11-20T02:16:05;20.2;;;13.5;;
67429;SDS011;54298;52.076;5.264;2022-11-20T02:19:26;18.3;;;13.2;;
67429;SDS011;54298;52.076;5.264;2022-11-20T02:21:05;18.8;;;12.3;;
67429;SDS011;54298;52.076;5.264;2022-11-20T02:22:50;17.7;;;12.0;;
67429;SDS011;54298;52.076;5.264;2022-11-20T02:24:33;18.7;;;13.1;;
67429;SDS011;54298;52.076;5.264;2022-11-20T02:27:51;20.9;;;13.4;;
67429;SDS011;54298;52.076;5.264;2022-11-20T02:29:28;20.11;;;13.3;;
67429;SDS011;54298;52.076;5.264;2022-11-20T02:31:10;20.5;;;14.2;;
67429;SDS011;54298;52.076;5.264;2022-11-20T02:32:46;22.3;;;14.9;;
67429;SDS011;54298;52.076;5.264;2022-11-20T02:35:58;21.3;;;14.0;;
67429;SDS011;54298;52.076;5.264;2022-11-20T02:37:35;20.8;;;13.9;;
67429;SDS011;54298;52.076;5.264;2022-11-20T02:39:16;19.91;;;13.1;;
67429;SDS011;54298;52.076;5.264;2022-11-20T02:42:29;22.2;;;14.4;;
67429;SDS011;54298;52.076;5.264;2022-11-20T02:44:05;20.11;;;13.7;;
67429;SDS011;54298;52.076;5.264;2022-11-20T02:45:41;17.91;;;12.2;;
67429;SDS011;54298;52.076;5.264;2022-11-20T02:47:18;21.2;;;13.9;;
67429;SDS011;54298;52.076;5.264;2022-11-20T02:50:30;20.9;;;14.3;;
67429;SDS011;54298;52.076;5.264;2022-11-20T02:52:06;21.9;;;14.3;;
67429;SDS011;54298;52.076;5.264;2022-11-20T02:53:43;19.41;;;13.4;;
67429;SDS011;54298;52.076;5.264;2022-11-20T02:56:55;21.5;;;13.5;;
67429;SDS011;54298;52.076;5.264;2022-11-20T02:58:31;20.11;;;13.9;;
67429;SDS011;54298;52.076;5.264;2022-11-20T03:00:08;20.6;;;14.0;;
67429;SDS011;54298;52.076;5.264;2022-11-20T03:03:20;22.1;;;14.2;;
67429;SDS011;54298;52.076;5.264;2022-11-20T03:04:57;21.7;;;14.8;;
67429;SDS011;54298;52.076;5.264;2022-11-20T03:06:34;22.1;;;14.9;;
67429;SDS011;54298;52.076;5.264;2022-11-20T03:09:46;23.9;;;15.6;;
67429;SDS011;54298;52.076;5.264;2022-11-20T03:11:23;23.8;;;15.1;;
67429;SDS011;54298;52.076;5.264;2022-11-20T03:13:00;21.7;;;14.6;;
67429;SDS011;54298;52.076;5.264;2022-11-20T03:14:35;18.61;;;12.6;;
67429;SDS011;54298;52.076;5.264;2022-11-20T03:17:52;19.91;;;13.4;;
67429;SDS011;54298;52.076;5.264;2022-11-20T03:19:30;20.11;;;14.1;;
67429;SDS011;54298;52.076;5.264;2022-11-20T03:21:06;22.5;;;14.7;;
67429;SDS011;54298;52.076;5.264;2022-11-20T03:24:19;21.2;;;13.4;;
67429;SDS011;54298;52.076;5.264;2022-11-20T03:25:55;20.6;;;13.9;;
67429;SDS011;54298;52.076;5.264;2022-11-20T03:27:32;22.5;;;14.7;;
67429;SDS011;54298;52.076;5.264;2022-11-20T03:29:09;20.11;;;13.7;;
67429;SDS011;54298;52.076;5.264;2022-11-20T03:32:21;21.0;;;13.8;;
67429;SDS011;54298;52.076;5.264;2022-11-20T03:33:58;22.7;;;14.4;;
67429;SDS011;54298;52.076;5.264;2022-11-20T03:35:35;23.6;;;14.7;;
67429;SDS011;54298;52.076;5.264;2022-11-20T03:38:47;20.6;;;13.6;;
67429;SDS011;54298;52.076;5.264;2022-11-20T03:40:24;23.2;;;14.0;;
67429;SDS011;54298;52.076;5.264;2022-11-20T03:42:00;20.11;;;14.1;;
67429;SDS011;54298;52.076;5.264;2022-11-20T03:45:14;20.5;;;13.5;;
67429;SDS011;54298;52.076;5.264;2022-11-20T03:46:52;22.5;;;14.1;;
67429;SDS011;54298;52.076;5.264;2022-11-20T03:48:28;20.0;;;14.0;;
67429;SDS011;54298;52.076;5.264;2022-11-20T03:50:06;19.5;;;14.0;;
67429;SDS011;54298;52.076;5.264;2022-11-20T03:53:20;21.9;;;14.4;;
67429;SDS011;54298;52.076;5.264;2022-11-20T03:54:56;20.5;;;14.0;;
67429;SDS011;54298;52.076;5.264;2022-11-20T03:56:33;19.41;;;13.6;;
67429;SDS011;54298;52.076;5.264;2022-11-20T03:59:47;19.8;;;13.6;;
67429;SDS011;54298;52.076;5.264;2022-11-20T04:01:23;20.11;;;13.9;;
67429;SDS011;54298;52.076;5.264;2022-11-20T04:03:02;20.0;;;13.7;;
67429;SDS011;54298;52.076;5.264;2022-11-20T04:06:16;24.3;;;14.2;;
67429;SDS011;54298;52.076;5.264;2022-11-20T04:07:54;23.0;;;13.8;;
67429;SDS011;54298;52.076;5.264;2022-11-20T04:09:31;22.2;;;14.6;;
67429;SDS011;54298;52.076;5.264;2022-11-20T04:11:08;19.7;;;13.1;;
67429;SDS011;54298;52.076;5.264;2022-11-20T04:14:22;22.1;;;14.8;;
67429;SDS011;54298;52.076;5.264;2022-11-20T04:15:58;21.0;;;15.1;;
67429;SDS011;54298;52.076;5.264;2022-11-20T04:17:35;21.1;;;14.0;;
67429;SDS011;54298;52.076;5.264;2022-11-20T04:20:51;22.0;;;13.8;;
67429;SDS011;54298;52.076;5.264;2022-11-20T04:22:27;22.2;;;14.3;;
67429;SDS011;54298;52.076;5.264;2022-11-20T04:24:06;22.6;;;15.5;;
67429;SDS011;54298;52.076;5.264;2022-11-20T04:25:42;20.7;;;13.8;;
67429;SDS011;54298;52.076;5.264;2022-11-20T04:28:55;19.5;;;13.3;;
67429;SDS011;54298;52.076;5.264;2022-11-20T04:30:32;20.8;;;13.9;;
67429;SDS011;54298;52.076;5.264;2022-11-20T04:32:08;18.11;;;13.1;;
67429;SDS011;54298;52.076;5.264;2022-11-20T04:35:22;19.61;;;13.3;;
67429;SDS011;54298;52.076;5.264;2022-11-20T04:36:57;17.7;;;12.3;;
67429;SDS011;54298;52.076;5.264;2022-11-20T04:38:33;20.7;;;13.6;;
67429;SDS011;54298;52.076;5.264;2022-11-20T04:41:46;21.2;;;13.6;;
67429;SDS011;54298;52.076;5.264;2022-11-20T04:43:23;18.41;;;12.8;;
67429;SDS011;54298;52.076;5.264;2022-11-20T04:44:59;21.5;;;13.5;;
67429;SDS011;54298;52.076;5.264;2022-11-20T04:46:36;21.2;;;13.8;;
67429;SDS011;54298;52.076;5.264;2022-11-20T04:49:51;21.1;;;14.6;;
67429;SDS011;54298;52.076;5.264;2022-11-20T04:51:27;21.8;;;13.9;;
67429;SDS011;54298;52.076;5.264;2022-11-20T04:53:03;21.3;;;13.4;;
67429;SDS011;54298;52.076;5.264;2022-11-20T04:56:15;20.7;;;14.0;;
67429;SDS011;54298;52.076;5.264;2022-11-20T04:57:52;19.7;;;13.5;;
67429;SDS011;54298;52.076;5.264;2022-11-20T04:59:29;19.2;;;13.3;;
67429;SDS011;54298;52.076;5.264;2022-11-20T05:02:43;19.8;;;13.7;;
67429;SDS011;54298;52.076;5.264;2022-11-20T05:04:19;18.41;;;13.4;;
67429;SDS011;54298;52.076;5.264;2022-11-20T05:05:55;18.11;;;12.9;;
67429;SDS011;54298;52.076;5.264;2022-11-20T05:07:31;21.5;;;15.5;;
67429;SDS011;54298;52.076;5.264;2022-11-20T05:10:44;19.7;;;14.1;;
67429;SDS011;54298;52.076;5.264;2022-11-20T05:12:20;20.0;;;13.6;;
67429;SDS011;54298;52.076;5.264;2022-11-20T05:13:58;20.3;;;12.8;;
67429;SDS011;54298;52.076;5.264;2022-11-20T05:17:11;18.8;;;13.1;;
67429;SDS011;54298;52.076;5.264;2022-11-20T05:18:48;19.5;;;12.8;;
67429;SDS011;54298;52.076;5.264;2022-11-20T05:20:26;22.1;;;14.3;;
67429;SDS011;54298;52.076;5.264;2022-11-20T05:23:41;22.4;;;14.5;;
67429;SDS011;54298;52.076;5.264;2022-11-20T05:25:19;20.3;;;12.9;;
67429;SDS011;54298;52.076;5.264;2022-11-20T05:26:55;21.9;;;14.0;;
67429;SDS011;54298;52.076;5.264;2022-11-20T05:28:31;20.3;;;13.9;;
67429;SDS011;54298;52.076;5.264;2022-11-20T05:31:48;18.41;;;12.5;;
67429;SDS011;54298;52.076;5.264;2022-11-20T05:33:24;22.6;;;14.8;;
67429;SDS011;54298;52.076;5.264;2022-11-20T05:35:00;21.0;;;15.0;;
67429;SDS011;54298;52.076;5.264;2022-11-20T05:38:12;22.7;;;14.6;;
67429;SDS011;54298;52.076;5.264;2022-11-20T05:39:48;23.7;;;15.3;;
67429;SDS011;54298;52.076;5.264;2022-11-20T05:41:25;24.0;;;14.4;;
67429;SDS011;54298;52.076;5.264;2022-11-20T05:43:01;20.5;;;13.5;;
67429;SDS011;54298;52.076;5.264;2022-11-20T05:46:16;20.2;;;14.1;;
67429;SDS011;54298;52.076;5.264;2022-11-20T05:47:57;24.2;;;13.2;;
67429;SDS011;54298;52.076;5.264;2022-11-20T05:49:35;21.8;;;14.6;;
67429;SDS011;54298;52.076;5.264;2022-11-20T05:52:51;22.1;;;14.6;;
67429;SDS011;54298;52.076;5.264;2022-11-20T05:54:27;21.7;;;14.1;;
67429;SDS011;54298;52.076;5.264;2022-11-20T05:56:04;19.5;;;13.7;;
67429;SDS011;54298;52.076;5.264;2022-11-20T05:57:45;21.9;;;14.7;;
67429;SDS011;54298;52.076;5.264;2022-11-20T06:01:02;21.7;;;14.4;;
67429;SDS011;54298;52.076;5.264;2022-11-20T06:02:41;21.4;;;14.4;;
67429;SDS011;54298;52.076;5.264;2022-11-20T06:04:17;21.0;;;14.3;;
67429;SDS011;54298;52.076;5.264;2022-11-20T06:07:30;22.4;;;14.4;;
67429;SDS011;54298;52.076;5.264;2022-11-20T06:09:06;23.1;;;14.6;;
67429;SDS011;54298;52.076;5.264;2022-11-20T06:10:42;19.3;;;12.6;;
67429;SDS011;54298;52.076;5.264;2022-11-20T06:12:18;20.3;;;14.5;;
67429;SDS011;54298;52.076;5.264;2022-11-20T06:15:30;20.3;;;13.7;;
67429;SDS011;54298;52.076;5.264;2022-11-20T06:17:07;20.41;;;12.7;;
67429;SDS011;54298;52.076;5.264;2022-11-20T06:18:43;18.91;;;13.4;;
67429;SDS011;54298;52.076;5.264;2022-11-20T06:21:57;20.3;;;14.7;;
67429;SDS011;54298;52.076;5.264;2022-11-20T06:23:34;18.7;;;12.6;;
67429;SDS011;54298;52.076;5.264;2022-11-20T06:25:12;19.0;;;14.2;;
67429;SDS011;54298;52.076;5.264;2022-11-20T06:28:25;20.41;;;13.6;;
67429;SDS011;54298;52.076;5.264;2022-11-20T06:30:01;22.2;;;13.2;;
67429;SDS011;54298;52.076;5.264;2022-11-20T06:31:39;19.0;;;12.5;;
67429;SDS011;54298;52.076;5.264;2022-11-20T06:33:15;20.2;;;13.8;;
67429;SDS011;54298;52.076;5.264;2022-11-20T06:36:27;23.9;;;14.1;;
67429;SDS011;54298;52.076;5.264;2022-11-20T06:38:03;21.0;;;13.2;;
67429;SDS011;54298;52.076;5.264;2022-11-20T06:42:57;21.5;;;15.0;;
67429;SDS011;54298;52.076;5.264;2022-11-20T06:44:33;18.8;;;12.7;;
67429;SDS011;54298;52.076;5.264;2022-11-20T06:46:10;19.5;;;13.7;;
67429;SDS011;54298;52.076;5.264;2022-11-20T06:49:25;19.8;;;13.8;;
67429;SDS011;54298;52.076;5.264;2022-11-20T06:51:02;20.2;;;13.8;;
67429;SDS011;54298;52.076;5.264;2022-11-20T06:52:39;19.5;;;13.3;;
67429;SDS011;54298;52.076;5.264;2022-11-20T06:54:16;19.3;;;13.7;;
67429;SDS011;54298;52.076;5.264;2022-11-20T06:57:32;20.6;;;13.3;;
67429;SDS011;54298;52.076;5.264;2022-11-20T06:59:08;20.9;;;13.4;;
67429;SDS011;54298;52.076;5.264;2022-11-20T07:00:44;19.3;;;12.9;;
67429;SDS011;54298;52.076;5.264;2022-11-20T07:03:57;21.3;;;14.5;;
67429;SDS011;54298;52.076;5.264;2022-11-20T07:05:33;18.3;;;12.6;;
67429;SDS011;54298;52.076;5.264;2022-11-20T07:07:10;21.1;;;14.4;;
67429;SDS011;54298;52.076;5.264;2022-11-20T07:08:47;21.0;;;14.5;;
67429;SDS011;54298;52.076;5.264;2022-11-20T07:12:00;20.3;;;13.3;;
67429;SDS011;54298;52.076;5.264;2022-11-20T07:13:36;20.9;;;13.6;;
67429;SDS011;54298;52.076;5.264;2022-11-20T07:15:12;19.7;;;13.2;;
67429;SDS011;54298;52.076;5.264;2022-11-20T07:18:26;20.2;;;13.2;;
67429;SDS011;54298;52.076;5.264;2022-11-20T07:20:02;18.8;;;13.2;;
67429;SDS011;54298;52.076;5.264;2022-11-20T07:21:38;21.4;;;14.1;;
67429;SDS011;54298;52.076;5.264;2022-11-20T07:24:50;18.61;;;12.8;;
67429;SDS011;54298;52.076;5.264;2022-11-20T07:26:26;18.61;;;12.8;;
67429;SDS011;54298;52.076;5.264;2022-11-20T07:28:03;20.11;;;13.3;;
67429;SDS011;54298;52.076;5.264;2022-11-20T07:29:40;22.4;;;13.9;;
67429;SDS011;54298;52.076;5.264;2022-11-20T07:32:52;20.41;;;14.6;;
67429;SDS011;54298;52.076;5.264;2022-11-20T07:34:30;18.8;;;13.1;;
67429;SDS011;54298;52.076;5.264;2022-11-20T07:36:07;20.0;;;14.2;;
67429;SDS011;54298;52.076;5.264;2022-11-20T07:39:22;19.0;;;13.0;;
67429;SDS011;54298;52.076;5.264;2022-11-20T07:41:01;19.61;;;13.7;;
67429;SDS011;54298;52.076;5.264;2022-11-20T07:42:38;21.1;;;14.0;;
67429;SDS011;54298;52.076;5.264;2022-11-20T07:45:50;19.8;;;13.3;;
67429;SDS011;54298;52.076;5.264;2022-11-20T07:47:28;20.7;;;13.9;;
67429;SDS011;54298;52.076;5.264;2022-11-20T07:49:05;20.11;;;13.7;;
67429;SDS011;54298;52.076;5.264;2022-11-20T07:50:41;20.8;;;13.8;;
67429;SDS011;54298;52.076;5.264;2022-11-20T07:53:53;19.41;;;13.5;;
67429;SDS011;54298;52.076;5.264;2022-11-20T07:55:29;21.7;;;14.5;;
67429;SDS011;54298;52.076;5.264;2022-11-20T07:57:07;22.5;;;14.6;;
67429;SDS011;54298;52.076;5.264;2022-11-20T08:00:19;21.3;;;14.9;;
67429;SDS011;54298;52.076;5.264;2022-11-20T08:01:55;19.91;;;13.3;;
67429;SDS011;54298;52.076;5.264;2022-11-20T08:03:32;21.1;;;14.9;;
67429;SDS011;54298;52.076;5.264;2022-11-20T08:06:46;20.6;;;14.3;;
67429;SDS011;54298;52.076;5.264;2022-11-20T08:08:22;20.6;;;13.4;;
67429;SDS011;54298;52.076;5.264;2022-11-20T08:09:58;24.0;;;15.2;;
67429;SDS011;54298;52.076;5.264;2022-11-20T08:15:47;20.8;;;14.1;;
67429;SDS011;54298;52.076;5.264;2022-11-20T08:19:01;22.6;;;15.0;;
67429;SDS011;54298;52.076;5.264;2022-11-20T08:20:37;24.2;;;15.6;;
67429;SDS011;54298;52.076;5.264;2022-11-20T08:22:15;23.8;;;15.4;;
67429;SDS011;54298;52.076;5.264;2022-11-20T08:25:28;23.5;;;16.0;;
67429;SDS011;54298;52.076;5.264;2022-11-20T08:27:05;27.4;;;16.3;;
67429;SDS011;54298;52.076;5.264;2022-11-20T08:28:42;23.3;;;16.2;;
67429;SDS011;54298;52.076;5.264;2022-11-20T08:31:54;24.6;;;17.3;;
67429;SDS011;54298;52.076;5.264;2022-11-20T08:33:32;23.9;;;16.9;;
67429;SDS011;54298;52.076;5.264;2022-11-20T08:35:08;23.1;;;17.5;;
67429;SDS011;54298;52.076;5.264;2022-11-20T08:36:45;34.0;;;22.7;;
67429;SDS011;54298;52.076;5.264;2022-11-20T08:39:57;31.7;;;20.5;;
67429;SDS011;54298;52.076;5.264;2022-11-20T08:41:33;30.2;;;20.7;;
67429;SDS011;54298;52.076;5.264;2022-11-20T08:43:10;32.4;;;21.5;;
67429;SDS011;54298;52.076;5.264;2022-11-20T08:46:22;27.5;;;19.11;;
67429;SDS011;54298;52.076;5.264;2022-11-20T08:48:00;29.9;;;19.7;;
67429;SDS011;54298;52.076;5.264;2022-11-20T08:49:37;26.6;;;19.3;;
67429;SDS011;54298;52.076;5.264;2022-11-20T08:52:51;27.8;;;19.41;;
67429;SDS011;54298;52.076;5.264;2022-11-20T08:54:27;27.7;;;19.41;;
67429;SDS011;54298;52.076;5.264;2022-11-20T08:56:03;27.8;;;19.0;;
67429;SDS011;54298;52.076;5.264;2022-11-20T08:57:40;30.1;;;21.4;;
67429;SDS011;54298;52.076;5.264;2022-11-20T09:00:53;33.3;;;20.6;;
67429;SDS011;54298;52.076;5.264;2022-11-20T09:02:30;32.4;;;20.6;;
67429;SDS011;54298;52.076;5.264;2022-11-20T09:04:06;30.1;;;20.6;;
67429;SDS011;54298;52.076;5.264;2022-11-20T09:07:19;30.2;;;21.3;;
67429;SDS011;54298;52.076;5.264;2022-11-20T09:08:55;29.8;;;20.2;;
67429;SDS011;54298;52.076;5.264;2022-11-20T09:10:32;29.7;;;22.7;;
67429;SDS011;54298;52.076;5.264;2022-11-20T09:13:44;29.1;;;19.91;;
67429;SDS011;54298;52.076;5.264;2022-11-20T09:15:21;31.1;;;21.5;;
67429;SDS011;54298;52.076;5.264;2022-11-20T09:16:59;29.8;;;21.3;;
67429;SDS011;54298;52.076;5.264;2022-11-20T09:18:36;31.9;;;23.4;;
67429;SDS011;54298;52.076;5.264;2022-11-20T09:21:50;30.5;;;20.6;;
67429;SDS011;54298;52.076;5.264;2022-11-20T09:23:27;30.2;;;20.3;;
67429;SDS011;54298;52.076;5.264;2022-11-20T09:25:08;31.7;;;23.5;;
67429;SDS011;54298;52.076;5.264;2022-11-20T09:28:21;30.2;;;20.7;;
67429;SDS011;54298;52.076;5.264;2022-11-20T09:29:57;29.6;;;21.3;;
67429;SDS011;54298;52.076;5.264;2022-11-20T09:31:33;27.3;;;20.0;;
67429;SDS011;54298;52.076;5.264;2022-11-20T09:33:09;29.7;;;21.7;;
67429;SDS011;54298;52.076;5.264;2022-11-20T09:36:22;27.6;;;20.2;;
67429;SDS011;54298;52.076;5.264;2022-11-20T09:37:58;30.6;;;21.3;;
67429;SDS011;54298;52.076;5.264;2022-11-20T09:39:38;29.3;;;21.4;;
67429;SDS011;54298;52.076;5.264;2022-11-20T09:43:23;26.4;;;18.7;;
